sensor_id;sensor_type;location;lat;lon;timestamp;pressure;altitude;pressure_sealevel;temperature;humidity
29879;BME280;16752;53.364;-1.488;2022-12-18T00:01:45;100831.63;;;9.04;45.95
29879;BME280;16752;53.364;-1.488;2022-12-18T00:04:19;100839.50;;;8.52;47.33
29879;BME280;16752;53.364;-1.488;2022-12-18T00:06:45;100832.13;;;8.07;48.14
29879;BME280;16752;53.364;-1.488;2022-12-18T00:09:10;100834.03;;;8.04;48.99
29879;BME280;16752;53.364;-1.488;2022-12-18T00:11:37;100828.56;;;7.91;48.95
29879;BME280;16752;53.364;-1.488;2022-12-18T00:14:02;100830.25;;;8.28;48.40
29879;BME280;16752;53.364;-1.488;2022-12-18T00:16:29;100835.66;;;8.77;46.62
29879;BME280;16752;53.364;-1.488;2022-12-18T00:18:56;100838.03;;;8.81;46.00
29879;BME280;16752;53.364;-1.488;2022-12-18T00:21:23;100829.19;;;8.84;46.19
29879;BME280;16752;53.364;-1.488;2022-12-18T00:23:49;100825.25;;;9.10;45.41
29879;BME280;16752;53.364;-1.488;2022-12-18T00:26:16;100829.88;;;9.05;45.45
29879;BME280;16752;53.364;-1.488;2022-12-18T00:28:44;100831.75;;;8.15;47.22
29879;BME280;16752;53.364;-1.488;2022-12-18T00:31:10;100828.69;;;9.10;45.21
29879;BME280;16752;53.364;-1.488;2022-12-18T00:33:39;100837.44;;;7.87;48.01
29879;BME280;16752;53.364;-1.488;2022-12-18T00:36:05;100834.16;;;8.01;47.32
29879;BME280;16752;53.364;-1.488;2022-12-18T00:38:31;100832.09;;;9.12;44.59
29879;BME280;16752;53.364;-1.488;2022-12-18T00:40:57;100837.47;;;9.09;44.54
29879;BME280;16752;53.364;-1.488;2022-12-18T00:43:22;100835.31;;;9.17;45.16
29879;BME280;16752;53.364;-1.488;2022-12-18T00:45:48;100836.78;;;9.39;44.50
29879;BME280;16752;53.364;-1.488;2022-12-18T00:48:13;100833.41;;;9.37;43.97
29879;BME280;16752;53.364;-1.488;2022-12-18T00:50:38;100821.06;;;9.23;44.50
29879;BME280;16752;53.364;-1.488;2022-12-18T00:53:04;100827.06;;;9.25;44.22
29879;BME280;16752;53.364;-1.488;2022-12-18T00:55:29;100833.25;;;9.07;44.56
29879;BME280;16752;53.364;-1.488;2022-12-18T00:57:54;100834.41;;;9.01;44.56
29879;BME280;16752;53.364;-1.488;2022-12-18T01:00:20;100848.41;;;8.66;44.50
29879;BME280;16752;53.364;-1.488;2022-12-18T01:02:46;100838.13;;;8.97;44.79
29879;BME280;16752;53.364;-1.488;2022-12-18T01:05:12;100846.72;;;8.99;44.69
29879;BME280;16752;53.364;-1.488;2022-12-18T01:07:38;100847.03;;;8.93;44.64
29879;BME280;16752;53.364;-1.488;2022-12-18T01:10:05;100843.88;;;8.86;44.61
29879;BME280;16752;53.364;-1.488;2022-12-18T01:12:31;100848.81;;;8.75;45.17
29879;BME280;16752;53.364;-1.488;2022-12-18T01:14:57;100844.59;;;8.73;44.77
29879;BME280;16752;53.364;-1.488;2022-12-18T01:17:22;100843.91;;;8.69;44.53
29879;BME280;16752;53.364;-1.488;2022-12-18T01:19:48;100840.81;;;8.61;44.88
29879;BME280;16752;53.364;-1.488;2022-12-18T01:22:13;100835.22;;;8.51;45.24
29879;BME280;16752;53.364;-1.488;2022-12-18T01:24:38;100835.06;;;8.54;45.24
29879;BME280;16752;53.364;-1.488;2022-12-18T01:27:04;100835.22;;;8.51;45.27
29879;BME280;16752;53.364;-1.488;2022-12-18T01:29:29;100825.94;;;8.27;45.99
29879;BME280;16752;53.364;-1.488;2022-12-18T01:31:55;100824.09;;;8.48;45.48
29879;BME280;16752;53.364;-1.488;2022-12-18T01:34:21;100816.94;;;8.51;45.19
29879;BME280;16752;53.364;-1.488;2022-12-18T01:36:47;100830.28;;;8.45;45.21
29879;BME280;16752;53.364;-1.488;2022-12-18T01:39:13;100831.53;;;8.55;44.89
29879;BME280;16752;53.364;-1.488;2022-12-18T01:41:38;100825.63;;;8.52;45.12
29879;BME280;16752;53.364;-1.488;2022-12-18T01:47:06;100828.16;;;8.53;45.42
29879;BME280;16752;53.364;-1.488;2022-12-18T01:49:32;100825.47;;;8.55;45.57
29879;BME280;16752;53.364;-1.488;2022-12-18T01:51:58;100818.03;;;8.47;45.83
29879;BME280;16752;53.364;-1.488;2022-12-18T01:54:23;100826.91;;;8.43;45.53
29879;BME280;16752;53.364;-1.488;2022-12-18T01:56:48;100840.72;;;8.45;45.47
29879;BME280;16752;53.364;-1.488;2022-12-18T01:59:14;100837.34;;;8.43;45.39
29879;BME280;16752;53.364;-1.488;2022-12-18T02:01:39;100844.47;;;8.40;45.28
29879;BME280;16752;53.364;-1.488;2022-12-18T02:06:45;100848.03;;;8.20;45.44
29879;BME280;16752;53.364;-1.488;2022-12-18T02:09:15;100850.47;;;8.23;45.43
29879;BME280;16752;53.364;-1.488;2022-12-18T02:14:31;100843.66;;;8.20;46.07
29879;BME280;16752;53.364;-1.488;2022-12-18T02:17:01;100837.50;;;8.21;45.65
29879;BME280;16752;53.364;-1.488;2022-12-18T02:24:53;100842.47;;;8.27;45.27
29879;BME280;16752;53.364;-1.488;2022-12-18T02:27:22;100843.66;;;7.47;47.46
29879;BME280;16752;53.364;-1.488;2022-12-18T02:29:49;100846.41;;;7.81;46.18
29879;BME280;16752;53.364;-1.488;2022-12-18T02:32:17;100856.63;;;7.86;45.89
29879;BME280;16752;53.364;-1.488;2022-12-18T02:34:44;100854.78;;;7.88;46.12
29879;BME280;16752;53.364;-1.488;2022-12-18T02:37:12;100849.56;;;7.69;46.69
29879;BME280;16752;53.364;-1.488;2022-12-18T02:39:40;100857.16;;;7.92;46.25
29879;BME280;16752;53.364;-1.488;2022-12-18T02:42:06;100857.03;;;7.95;46.07
29879;BME280;16752;53.364;-1.488;2022-12-18T02:44:34;100845.19;;;8.07;45.56
29879;BME280;16752;53.364;-1.488;2022-12-18T02:47:00;100857.31;;;8.08;45.65
29879;BME280;16752;53.364;-1.488;2022-12-18T02:52:06;100860.16;;;7.85;46.18
29879;BME280;16752;53.364;-1.488;2022-12-18T02:54:37;100860.22;;;7.83;46.29
29879;BME280;16752;53.364;-1.488;2022-12-18T02:57:09;100842.50;;;7.90;46.19
29879;BME280;16752;53.364;-1.488;2022-12-18T02:59:40;100839.03;;;8.08;45.95
29879;BME280;16752;53.364;-1.488;2022-12-18T03:02:10;100832.59;;;8.15;45.76
29879;BME280;16752;53.364;-1.488;2022-12-18T03:04:43;100836.81;;;8.18;45.54
29879;BME280;16752;53.364;-1.488;2022-12-18T03:07:10;100834.41;;;7.77;46.79
29879;BME280;16752;53.364;-1.488;2022-12-18T03:09:38;100839.25;;;8.04;45.66
29879;BME280;16752;53.364;-1.488;2022-12-18T03:12:16;100831.38;;;7.86;46.23
29879;BME280;16752;53.364;-1.488;2022-12-18T03:14:57;100830.91;;;7.59;46.94
29879;BME280;16752;53.364;-1.488;2022-12-18T03:17:25;100826.47;;;7.97;45.82
29879;BME280;16752;53.364;-1.488;2022-12-18T03:19:52;100832.22;;;8.06;46.06
29879;BME280;16752;53.364;-1.488;2022-12-18T03:22:19;100836.34;;;8.10;45.58
29879;BME280;16752;53.364;-1.488;2022-12-18T03:24:45;100830.84;;;8.16;45.30
29879;BME280;16752;53.364;-1.488;2022-12-18T03:27:12;100823.16;;;8.13;45.39
29879;BME280;16752;53.364;-1.488;2022-12-18T03:29:44;100828.59;;;8.08;45.48
29879;BME280;16752;53.364;-1.488;2022-12-18T03:32:12;100792.72;;;7.94;45.30
29879;BME280;16752;53.364;-1.488;2022-12-18T03:34:40;100822.22;;;8.14;45.19
29879;BME280;16752;53.364;-1.488;2022-12-18T03:37:07;100811.88;;;8.12;45.22
29879;BME280;16752;53.364;-1.488;2022-12-18T03:39:33;100819.63;;;8.14;45.26
29879;BME280;16752;53.364;-1.488;2022-12-18T03:42:04;100806.84;;;7.72;46.40
29879;BME280;16752;53.364;-1.488;2022-12-18T03:47:07;100783.88;;;7.23;47.83
29879;BME280;16752;53.364;-1.488;2022-12-18T03:52:10;100784.16;;;7.36;47.16
29879;BME280;16752;53.364;-1.488;2022-12-18T03:54:36;100778.25;;;7.70;46.63
29879;BME280;16752;53.364;-1.488;2022-12-18T03:57:07;100770.53;;;6.92;48.72
29879;BME280;16752;53.364;-1.488;2022-12-18T03:59:34;100773.31;;;7.08;47.72
29879;BME280;16752;53.364;-1.488;2022-12-18T04:02:01;100755.53;;;6.78;48.80
29879;BME280;16752;53.364;-1.488;2022-12-18T04:04:29;100739.16;;;6.95;48.73
29879;BME280;16752;53.364;-1.488;2022-12-18T04:06:55;100742.09;;;6.87;48.59
29879;BME280;16752;53.364;-1.488;2022-12-18T04:09:21;100741.47;;;7.01;48.01
29879;BME280;16752;53.364;-1.488;2022-12-18T04:11:47;100740.19;;;6.52;49.00
29879;BME280;16752;53.364;-1.488;2022-12-18T04:14:14;100746.00;;;6.97;48.81
29879;BME280;16752;53.364;-1.488;2022-12-18T04:16:39;100685.00;;;6.83;47.60
29879;BME280;16752;53.364;-1.488;2022-12-18T04:19:05;100724.09;;;6.22;50.57
29879;BME280;16752;53.364;-1.488;2022-12-18T04:21:30;100727.94;;;6.74;48.55
29879;BME280;16752;53.364;-1.488;2022-12-18T04:23:56;100720.25;;;6.71;49.04
29879;BME280;16752;53.364;-1.488;2022-12-18T04:26:22;100728.81;;;7.12;47.99
29879;BME280;16752;53.364;-1.488;2022-12-18T04:28:47;100727.69;;;6.99;48.79
29879;BME280;16752;53.364;-1.488;2022-12-18T04:31:13;100725.72;;;7.23;48.01
29879;BME280;16752;53.364;-1.488;2022-12-18T04:33:38;100718.59;;;7.45;47.74
29879;BME280;16752;53.364;-1.488;2022-12-18T04:36:04;100708.50;;;6.42;49.77
29879;BME280;16752;53.364;-1.488;2022-12-18T04:38:30;100694.28;;;6.69;48.96
29879;BME280;16752;53.364;-1.488;2022-12-18T04:40:55;100692.44;;;6.71;49.26
29879;BME280;16752;53.364;-1.488;2022-12-18T04:43:21;100697.22;;;6.62;49.00
29879;BME280;16752;53.364;-1.488;2022-12-18T04:45:48;100698.19;;;6.80;49.01
29879;BME280;16752;53.364;-1.488;2022-12-18T04:48:13;100697.75;;;7.26;47.42
29879;BME280;16752;53.364;-1.488;2022-12-18T04:50:38;100700.72;;;7.00;47.55
29879;BME280;16752;53.364;-1.488;2022-12-18T04:53:04;100689.56;;;7.34;47.78
29879;BME280;16752;53.364;-1.488;2022-12-18T04:55:29;100693.84;;;7.54;47.55
29879;BME280;16752;53.364;-1.488;2022-12-18T04:57:54;100683.28;;;7.74;46.55
29879;BME280;16752;53.364;-1.488;2022-12-18T05:00:20;100672.28;;;7.86;46.29
29879;BME280;16752;53.364;-1.488;2022-12-18T05:02:45;100664.78;;;7.44;47.28
29879;BME280;16752;53.364;-1.488;2022-12-18T05:05:11;100663.31;;;7.56;47.21
29879;BME280;16752;53.364;-1.488;2022-12-18T05:07:37;100652.50;;;7.82;46.60
29879;BME280;16752;53.364;-1.488;2022-12-18T05:10:02;100669.59;;;7.52;47.90
29879;BME280;16752;53.364;-1.488;2022-12-18T05:12:28;100661.22;;;7.98;47.04
29879;BME280;16752;53.364;-1.488;2022-12-18T05:14:53;100644.72;;;7.98;46.96
29879;BME280;16752;53.364;-1.488;2022-12-18T05:17:19;100635.59;;;7.89;47.97
29879;BME280;16752;53.364;-1.488;2022-12-18T05:19:44;100624.72;;;7.64;48.17
29879;BME280;16752;53.364;-1.488;2022-12-18T05:22:10;100622.75;;;8.37;46.27
29879;BME280;16752;53.364;-1.488;2022-12-18T05:24:37;100629.97;;;8.14;46.57
29879;BME280;16752;53.364;-1.488;2022-12-18T05:27:02;100629.47;;;7.90;47.50
29879;BME280;16752;53.364;-1.488;2022-12-18T05:29:27;100643.31;;;8.43;46.52
29879;BME280;16752;53.364;-1.488;2022-12-18T05:31:53;100629.13;;;8.14;46.84
29879;BME280;16752;53.364;-1.488;2022-12-18T05:34:18;100632.47;;;8.50;46.14
29879;BME280;16752;53.364;-1.488;2022-12-18T05:36:44;100629.28;;;8.61;45.82
29879;BME280;16752;53.364;-1.488;2022-12-18T05:39:09;100629.53;;;8.06;47.55
29879;BME280;16752;53.364;-1.488;2022-12-18T05:41:35;100622.81;;;8.18;46.74
29879;BME280;16752;53.364;-1.488;2022-12-18T05:44:01;100627.72;;;8.24;46.91
29879;BME280;16752;53.364;-1.488;2022-12-18T05:46:26;100627.13;;;8.36;46.55
29879;BME280;16752;53.364;-1.488;2022-12-18T05:48:52;100628.88;;;6.96;49.53
29879;BME280;16752;53.364;-1.488;2022-12-18T05:51:18;100644.50;;;6.38;51.59
29879;BME280;16752;53.364;-1.488;2022-12-18T05:53:44;100652.94;;;7.90;48.03
29879;BME280;16752;53.364;-1.488;2022-12-18T05:56:11;100643.50;;;7.71;48.97
29879;BME280;16752;53.364;-1.488;2022-12-18T05:58:37;100648.25;;;8.14;47.28
29879;BME280;16752;53.364;-1.488;2022-12-18T06:01:10;100646.28;;;8.52;46.69
29879;BME280;16752;53.364;-1.488;2022-12-18T06:03:37;100643.81;;;7.64;48.32
29879;BME280;16752;53.364;-1.488;2022-12-18T06:06:02;100648.31;;;7.25;48.79
29879;BME280;16752;53.364;-1.488;2022-12-18T06:08:28;100658.84;;;7.59;48.94
29879;BME280;16752;53.364;-1.488;2022-12-18T06:10:53;100657.69;;;7.82;48.54
29879;BME280;16752;53.364;-1.488;2022-12-18T06:13:19;100657.22;;;7.74;48.60
29879;BME280;16752;53.364;-1.488;2022-12-18T06:15:44;100659.84;;;8.09;47.39
29879;BME280;16752;53.364;-1.488;2022-12-18T06:18:10;100644.88;;;7.95;47.17
29879;BME280;16752;53.364;-1.488;2022-12-18T06:20:36;100630.47;;;8.55;46.45
29879;BME280;16752;53.364;-1.488;2022-12-18T06:23:04;100631.41;;;8.20;47.32
29879;BME280;16752;53.364;-1.488;2022-12-18T06:25:30;100636.38;;;7.91;47.88
29879;BME280;16752;53.364;-1.488;2022-12-18T06:27:55;100642.13;;;7.81;48.22
29879;BME280;16752;53.364;-1.488;2022-12-18T06:30:21;100646.00;;;8.41;46.60
29879;BME280;16752;53.364;-1.488;2022-12-18T06:32:47;100632.34;;;8.19;47.67
29879;BME280;16752;53.364;-1.488;2022-12-18T06:35:13;100624.69;;;8.16;47.77
29879;BME280;16752;53.364;-1.488;2022-12-18T06:37:38;100619.31;;;8.02;47.96
29879;BME280;16752;53.364;-1.488;2022-12-18T06:40:04;100616.06;;;8.64;46.05
29879;BME280;16752;53.364;-1.488;2022-12-18T06:42:30;100634.25;;;8.50;46.59
29879;BME280;16752;53.364;-1.488;2022-12-18T06:44:56;100644.19;;;8.09;47.54
29879;BME280;16752;53.364;-1.488;2022-12-18T06:47:21;100634.91;;;7.69;48.68
29879;BME280;16752;53.364;-1.488;2022-12-18T06:49:46;100646.56;;;7.79;48.03
29879;BME280;16752;53.364;-1.488;2022-12-18T06:52:12;100650.84;;;8.65;46.15
29879;BME280;16752;53.364;-1.488;2022-12-18T06:54:41;100655.66;;;7.53;48.92
29879;BME280;16752;53.364;-1.488;2022-12-18T06:57:06;100653.22;;;8.36;46.75
29879;BME280;16752;53.364;-1.488;2022-12-18T06:59:32;100651.53;;;8.01;47.04
29879;BME280;16752;53.364;-1.488;2022-12-18T07:01:58;100656.00;;;7.81;47.76
29879;BME280;16752;53.364;-1.488;2022-12-18T07:04:27;100654.81;;;7.16;49.47
29879;BME280;16752;53.364;-1.488;2022-12-18T07:06:52;100647.06;;;7.51;48.88
29879;BME280;16752;53.364;-1.488;2022-12-18T07:09:18;100638.72;;;6.50;51.26
29879;BME280;16752;53.364;-1.488;2022-12-18T07:11:43;100626.75;;;6.85;49.56
29879;BME280;16752;53.364;-1.488;2022-12-18T07:14:08;100613.59;;;7.24;48.70
29879;BME280;16752;53.364;-1.488;2022-12-18T07:16:34;100629.13;;;6.90;49.68
29879;BME280;16752;53.364;-1.488;2022-12-18T07:18:59;100609.97;;;7.63;48.39
29879;BME280;16752;53.364;-1.488;2022-12-18T07:21:25;100612.16;;;7.00;49.73
29879;BME280;16752;53.364;-1.488;2022-12-18T07:23:50;100621.06;;;7.13;49.13
29879;BME280;16752;53.364;-1.488;2022-12-18T07:26:16;100622.09;;;7.81;47.90
29879;BME280;16752;53.364;-1.488;2022-12-18T07:28:42;100615.31;;;6.69;50.11
29879;BME280;16752;53.364;-1.488;2022-12-18T07:31:09;100597.13;;;7.24;49.06
29879;BME280;16752;53.364;-1.488;2022-12-18T07:33:35;100593.56;;;7.61;48.56
29879;BME280;16752;53.364;-1.488;2022-12-18T07:36:01;100591.41;;;7.86;47.07
29879;BME280;16752;53.364;-1.488;2022-12-18T07:38:26;100609.09;;;6.73;49.16
29879;BME280;16752;53.364;-1.488;2022-12-18T07:40:52;100600.25;;;6.38;50.46
29879;BME280;16752;53.364;-1.488;2022-12-18T07:43:18;100579.84;;;7.04;49.22
29879;BME280;16752;53.364;-1.488;2022-12-18T07:45:43;100579.81;;;7.92;46.81
29879;BME280;16752;53.364;-1.488;2022-12-18T07:48:09;100585.34;;;7.86;47.23
29879;BME280;16752;53.364;-1.488;2022-12-18T07:50:34;100587.38;;;7.81;46.84
29879;BME280;16752;53.364;-1.488;2022-12-18T07:53:00;100581.34;;;7.27;48.48
29879;BME280;16752;53.364;-1.488;2022-12-18T07:55:29;100583.59;;;6.98;49.04
29879;BME280;16752;53.364;-1.488;2022-12-18T07:57:54;100574.53;;;6.69;49.14
29879;BME280;16752;53.364;-1.488;2022-12-18T08:00:20;100566.25;;;7.51;47.86
29879;BME280;16752;53.364;-1.488;2022-12-18T08:02:46;100569.88;;;7.48;47.57
29879;BME280;16752;53.364;-1.488;2022-12-18T08:05:12;100591.25;;;7.72;46.92
29879;BME280;16752;53.364;-1.488;2022-12-18T08:07:38;100593.19;;;7.86;46.88
29879;BME280;16752;53.364;-1.488;2022-12-18T08:10:03;100600.16;;;7.85;46.87
29879;BME280;16752;53.364;-1.488;2022-12-18T08:12:29;100588.97;;;7.83;47.09
29879;BME280;16752;53.364;-1.488;2022-12-18T08:14:55;100579.75;;;7.59;46.89
29879;BME280;16752;53.364;-1.488;2022-12-18T08:17:20;100593.56;;;7.78;46.88
29879;BME280;16752;53.364;-1.488;2022-12-18T08:19:45;100592.94;;;7.56;47.43
29879;BME280;16752;53.364;-1.488;2022-12-18T08:22:11;100598.47;;;7.50;47.82
29879;BME280;16752;53.364;-1.488;2022-12-18T08:24:36;100599.38;;;8.01;46.62
29879;BME280;16752;53.364;-1.488;2022-12-18T08:27:02;100604.91;;;7.94;46.96
29879;BME280;16752;53.364;-1.488;2022-12-18T08:29:29;100596.63;;;8.04;46.19
29879;BME280;16752;53.364;-1.488;2022-12-18T08:31:55;100596.31;;;7.92;46.66
29879;BME280;16752;53.364;-1.488;2022-12-18T08:34:21;100589.38;;;7.22;47.80
29879;BME280;16752;53.364;-1.488;2022-12-18T08:36:46;100587.41;;;7.27;48.24
29879;BME280;16752;53.364;-1.488;2022-12-18T08:39:12;100589.56;;;8.06;46.21
29879;BME280;16752;53.364;-1.488;2022-12-18T08:41:38;100596.56;;;8.21;46.09
29879;BME280;16752;53.364;-1.488;2022-12-18T08:44:03;100584.44;;;8.20;45.94
29879;BME280;16752;53.364;-1.488;2022-12-18T08:46:48;100581.72;;;7.36;48.00
29879;BME280;16752;53.364;-1.488;2022-12-18T08:49:14;100574.69;;;7.39;47.87
29879;BME280;16752;53.364;-1.488;2022-12-18T08:51:39;100573.28;;;7.31;47.91
29879;BME280;16752;53.364;-1.488;2022-12-18T08:54:05;100565.03;;;7.58;46.87
29879;BME280;16752;53.364;-1.488;2022-12-18T08:56:30;100548.84;;;7.51;47.62
29879;BME280;16752;53.364;-1.488;2022-12-18T08:58:57;100538.59;;;8.32;45.52
29879;BME280;16752;53.364;-1.488;2022-12-18T09:01:23;100543.66;;;8.02;46.23
29879;BME280;16752;53.364;-1.488;2022-12-18T09:03:49;100546.81;;;7.41;47.03
29879;BME280;16752;53.364;-1.488;2022-12-18T09:06:15;100544.88;;;8.12;45.76
29879;BME280;16752;53.364;-1.488;2022-12-18T09:08:42;100551.34;;;8.05;45.77
29879;BME280;16752;53.364;-1.488;2022-12-18T09:11:24;100539.44;;;7.99;46.15
29879;BME280;16752;53.364;-1.488;2022-12-18T09:13:50;100528.41;;;7.61;46.94
29879;BME280;16752;53.364;-1.488;2022-12-18T09:16:16;100518.63;;;8.15;45.45
29879;BME280;16752;53.364;-1.488;2022-12-18T09:18:44;100520.81;;;8.22;45.19
29879;BME280;16752;53.364;-1.488;2022-12-18T09:21:10;100520.53;;;8.11;45.15
29879;BME280;16752;53.364;-1.488;2022-12-18T09:23:36;100517.09;;;8.11;45.59
29879;BME280;16752;53.364;-1.488;2022-12-18T09:26:01;100513.13;;;8.52;44.82
29879;BME280;16752;53.364;-1.488;2022-12-18T09:28:27;100506.22;;;7.70;45.94
29879;BME280;16752;53.364;-1.488;2022-12-18T09:30:54;100502.63;;;7.55;46.97
29879;BME280;16752;53.364;-1.488;2022-12-18T09:33:19;100486.38;;;7.32;47.27
29879;BME280;16752;53.364;-1.488;2022-12-18T09:35:45;100473.59;;;8.11;45.34
29879;BME280;16752;53.364;-1.488;2022-12-18T09:38:11;100472.34;;;7.35;47.03
29879;BME280;16752;53.364;-1.488;2022-12-18T09:40:42;100472.25;;;8.04;45.79
29879;BME280;16752;53.364;-1.488;2022-12-18T09:43:09;100471.16;;;7.75;46.57
29879;BME280;16752;53.364;-1.488;2022-12-18T09:45:43;100462.69;;;8.36;45.16
29879;BME280;16752;53.364;-1.488;2022-12-18T09:48:18;100449.38;;;8.41;44.97
29879;BME280;16752;53.364;-1.488;2022-12-18T09:50:44;100432.59;;;8.29;45.24
29879;BME280;16752;53.364;-1.488;2022-12-18T09:53:16;100432.91;;;8.23;44.73
29879;BME280;16752;53.364;-1.488;2022-12-18T09:55:44;100438.44;;;8.34;45.20
29879;BME280;16752;53.364;-1.488;2022-12-18T10:00:36;100437.59;;;8.34;44.99
29879;BME280;16752;53.364;-1.488;2022-12-18T10:03:12;100433.50;;;7.13;46.88
29879;BME280;16752;53.364;-1.488;2022-12-18T10:06:01;100439.63;;;7.95;45.70
29879;BME280;16752;53.364;-1.488;2022-12-18T10:10:51;100418.94;;;7.92;46.09
29879;BME280;16752;53.364;-1.488;2022-12-18T10:13:33;100431.84;;;8.11;45.59
29879;BME280;16752;53.364;-1.488;2022-12-18T10:21:10;100421.50;;;8.41;44.66
29879;BME280;16752;53.364;-1.488;2022-12-18T10:26:09;100398.94;;;8.40;44.58
29879;BME280;16752;53.364;-1.488;2022-12-18T10:28:36;100401.03;;;7.86;45.83
29879;BME280;16752;53.364;-1.488;2022-12-18T10:31:04;100399.78;;;8.25;45.39
29879;BME280;16752;53.364;-1.488;2022-12-18T10:33:31;100384.06;;;8.72;44.30
29879;BME280;16752;53.364;-1.488;2022-12-18T10:35:57;100375.03;;;8.48;44.77
29879;BME280;16752;53.364;-1.488;2022-12-18T10:38:27;100372.31;;;8.18;44.85
29879;BME280;16752;53.364;-1.488;2022-12-18T10:41:06;100364.91;;;7.94;46.43
29879;BME280;16752;53.364;-1.488;2022-12-18T10:43:37;100362.41;;;8.09;46.03
29879;BME280;16752;53.364;-1.488;2022-12-18T10:54:18;100348.94;;;8.92;44.29
29879;BME280;16752;53.364;-1.488;2022-12-18T10:56:44;100339.66;;;8.72;44.45
29879;BME280;16752;53.364;-1.488;2022-12-18T10:59:11;100335.28;;;8.87;44.44
29879;BME280;16752;53.364;-1.488;2022-12-18T11:01:56;100327.03;;;8.65;44.61
29879;BME280;16752;53.364;-1.488;2022-12-18T11:04:27;100289.00;;;8.75;43.96
29879;BME280;16752;53.364;-1.488;2022-12-18T11:06:54;100332.75;;;8.41;45.21
29879;BME280;16752;53.364;-1.488;2022-12-18T11:09:28;100318.34;;;8.94;44.26
29879;BME280;16752;53.364;-1.488;2022-12-18T11:11:55;100314.59;;;8.98;44.06
29879;BME280;16752;53.364;-1.488;2022-12-18T11:14:31;100307.50;;;9.29;43.41
29879;BME280;16752;53.364;-1.488;2022-12-18T11:16:57;100295.41;;;7.93;46.15
29879;BME280;16752;53.364;-1.488;2022-12-18T11:21:49;100301.72;;;9.24;43.58
29879;BME280;16752;53.364;-1.488;2022-12-18T11:24:22;100295.03;;;9.19;43.50
29879;BME280;16752;53.364;-1.488;2022-12-18T11:26:51;100288.59;;;8.52;45.08
29879;BME280;16752;53.364;-1.488;2022-12-18T11:29:17;100282.50;;;8.96;44.70
29879;BME280;16752;53.364;-1.488;2022-12-18T11:31:44;100272.38;;;8.47;45.56
29879;BME280;16752;53.364;-1.488;2022-12-18T11:34:11;100279.22;;;8.78;44.59
29879;BME280;16752;53.364;-1.488;2022-12-18T11:36:42;100274.84;;;8.19;45.28
29879;BME280;16752;53.364;-1.488;2022-12-18T11:41:59;100257.16;;;8.24;45.76
29879;BME280;16752;53.364;-1.488;2022-12-18T11:44:45;100249.97;;;8.43;45.82
29879;BME280;16752;53.364;-1.488;2022-12-18T11:47:18;100244.53;;;7.86;46.58
29879;BME280;16752;53.364;-1.488;2022-12-18T11:49:45;100238.31;;;8.35;46.04
29879;BME280;16752;53.364;-1.488;2022-12-18T11:52:18;100233.66;;;8.24;46.24
29879;BME280;16752;53.364;-1.488;2022-12-18T11:54:50;100201.78;;;9.06;44.57
29879;BME280;16752;53.364;-1.488;2022-12-18T11:57:34;100213.31;;;8.15;46.38
29879;BME280;16752;53.364;-1.488;2022-12-18T12:00:12;100217.63;;;8.16;46.22
29879;BME280;16752;53.364;-1.488;2022-12-18T12:03:01;100204.06;;;9.39;43.89
29879;BME280;16752;53.364;-1.488;2022-12-18T12:10:33;100178.97;;;7.92;46.37
29879;BME280;16752;53.364;-1.488;2022-12-18T12:18:40;100142.41;;;9.49;43.78
29879;BME280;16752;53.364;-1.488;2022-12-18T12:25:58;100127.66;;;7.93;46.94
29879;BME280;16752;53.364;-1.488;2022-12-18T12:34:23;100115.19;;;9.12;44.96
29879;BME280;16752;53.364;-1.488;2022-12-18T12:39:06;100098.06;;;8.79;45.98
29879;BME280;16752;53.364;-1.488;2022-12-18T12:41:33;100094.75;;;8.35;46.71
29879;BME280;16752;53.364;-1.488;2022-12-18T12:44:24;100092.09;;;8.20;47.01
29879;BME280;16752;53.364;-1.488;2022-12-18T12:46:51;100102.50;;;8.50;46.60
29879;BME280;16752;53.364;-1.488;2022-12-18T12:49:17;100093.56;;;8.96;46.02
29879;BME280;16752;53.364;-1.488;2022-12-18T12:51:50;100098.34;;;8.04;48.18
29879;BME280;16752;53.364;-1.488;2022-12-18T12:54:22;100088.88;;;8.45;46.82
29879;BME280;16752;53.364;-1.488;2022-12-18T12:57:01;100082.66;;;9.43;44.96
29879;BME280;16752;53.364;-1.488;2022-12-18T13:04:48;100058.34;;;9.55;44.91
29879;BME280;16752;53.364;-1.488;2022-12-18T13:07:20;100050.41;;;8.76;46.66
29879;BME280;16752;53.364;-1.488;2022-12-18T13:10:12;100052.16;;;9.16;46.35
29879;BME280;16752;53.364;-1.488;2022-12-18T13:12:36;100054.75;;;9.43;45.59
29879;BME280;16752;53.364;-1.488;2022-12-18T13:15:21;100039.31;;;9.26;45.79
29879;BME280;16752;53.364;-1.488;2022-12-18T13:17:47;100034.91;;;8.46;47.08
29879;BME280;16752;53.364;-1.488;2022-12-18T13:20:13;100025.28;;;9.14;45.57
29879;BME280;16752;53.364;-1.488;2022-12-18T13:22:44;100016.91;;;8.13;48.53
29879;BME280;16752;53.364;-1.488;2022-12-18T13:25:27;100006.81;;;7.64;50.13
29879;BME280;16752;53.364;-1.488;2022-12-18T13:36:08;99991.00;;;8.38;48.19
29879;BME280;16752;53.364;-1.488;2022-12-18T13:38:35;99990.22;;;8.22;49.06
29879;BME280;16752;53.364;-1.488;2022-12-18T13:41:02;99973.47;;;8.26;49.49
29879;BME280;16752;53.364;-1.488;2022-12-18T13:46:58;99959.06;;;8.62;49.14
29879;BME280;16752;53.364;-1.488;2022-12-18T13:49:00;99948.09;;;8.96;48.05
29879;BME280;16752;53.364;-1.488;2022-12-18T13:51:26;99947.84;;;8.74;48.70
29879;BME280;16752;53.364;-1.488;2022-12-18T13:54:06;99939.69;;;8.78;48.33
29879;BME280;16752;53.364;-1.488;2022-12-18T13:56:42;99941.81;;;7.75;50.76
29879;BME280;16752;53.364;-1.488;2022-12-18T14:01:34;99928.00;;;7.16;52.02
29879;BME280;16752;53.364;-1.488;2022-12-18T14:04:12;99923.88;;;7.85;51.13
29879;BME280;16752;53.364;-1.488;2022-12-18T14:06:42;99933.22;;;8.84;48.95
29879;BME280;16752;53.364;-1.488;2022-12-18T14:09:13;99913.03;;;9.51;47.22
29879;BME280;16752;53.364;-1.488;2022-12-18T14:11:39;99915.56;;;8.07;49.95
29879;BME280;16752;53.364;-1.488;2022-12-18T14:14:06;99898.28;;;9.12;48.29
29879;BME280;16752;53.364;-1.488;2022-12-18T14:16:33;99892.41;;;8.56;49.55
29879;BME280;16752;53.364;-1.488;2022-12-18T14:19:11;99890.44;;;8.99;48.78
29879;BME280;16752;53.364;-1.488;2022-12-18T14:22:09;99880.09;;;8.17;50.62
29879;BME280;16752;53.364;-1.488;2022-12-18T14:24:44;99891.34;;;8.05;51.25